createdAt,value
2023-04-02T00:01:22.646Z,83.01
2023-04-02T00:04:23.841Z,85.03
2023-04-02T00:07:30.998Z,85.25
2023-04-02T00:10:45.446Z,83.94
2023-04-02T00:13:39.558Z,81.40
2023-04-02T00:16:24.927Z,85.79
2023-04-02T00:19:19.533Z,81.67
2023-04-02T00:22:09.620Z,81.64
2023-04-02T00:24:56.088Z,83.46
2023-04-02T00:27:42.602Z,82.15
2023-04-02T00:30:28.027Z,86.47
2023-04-02T00:33:18.545Z,82.51
2023-04-02T00:36:07.797Z,82.45
2023-04-02T00:38:55.617Z,82.79
2023-04-02T00:41:46.576Z,86.17
2023-04-02T00:44:43.156Z,80.39
2023-04-02T00:47:36.921Z,81.33
2023-04-02T00:50:29.007Z,88.61
2023-04-02T00:53:26.153Z,84.49
2023-04-02T00:56:17.236Z,78.35
2023-04-02T00:59:02.654Z,82.09
2023-04-02T01:01:54.161Z,83.42
2023-04-02T01:04:39.833Z,80.24
2023-04-02T01:07:45.223Z,79.27
2023-04-02T01:10:43.016Z,79.43
2023-04-02T01:13:35.211Z,80.98
2023-04-02T01:16:27.204Z,82.90
2023-04-02T01:19:45.239Z,79.88
2023-04-02T01:22:53.388Z,78.18
2023-04-02T01:25:39.009Z,79.13
2023-04-02T01:28:35.628Z,81.26
2023-04-02T01:31:22.080Z,78.09
2023-04-02T01:34:09.785Z,78.25
2023-04-02T01:37:00.907Z,79.85
2023-04-02T01:40:06.408Z,77.49
2023-04-02T01:43:13.544Z,77.05
2023-04-02T01:46:00.540Z,78.21
2023-04-02T01:48:45.793Z,78.09
2023-04-02T01:51:35.642Z,76.91
2023-04-02T01:54:22.219Z,78.93
2023-04-02T01:57:08.589Z,76.56
2023-04-02T01:59:55.160Z,77.54
2023-04-02T02:02:41.163Z,76.58
2023-04-02T02:05:27.037Z,76.84
2023-04-02T02:08:31.895Z,75.75
2023-04-02T02:11:21.562Z,76.50
2023-04-02T02:14:15.875Z,78.75
2023-04-02T02:17:04.743Z,75.94
2023-04-02T02:19:55.212Z,75.86
2023-04-02T02:22:45.909Z,76.42
2023-04-02T02:25:34.274Z,77.41
2023-04-02T02:28:35.290Z,78.35
2023-04-02T02:31:27.939Z,79.29
2023-04-02T02:37:27.889Z,80.22
2023-04-02T02:40:19.239Z,78.26
2023-04-02T02:43:10.499Z,74.06
2023-04-02T02:45:58.252Z,76.68
2023-04-02T02:48:44.495Z,76.59
2023-04-02T02:51:45.345Z,74.16
2023-04-02T02:54:32.187Z,74.69
2023-04-02T02:57:27.600Z,75.53
2023-04-02T03:00:16.803Z,77.53
2023-04-02T03:03:05.252Z,77.09
2023-04-02T03:05:53.741Z,74.82
2023-04-02T03:08:41.843Z,73.34
2023-04-02T03:11:43.798Z,75.77
2023-04-02T03:14:36.131Z,73.66
2023-04-02T03:17:31.611Z,81.51
2023-04-02T03:20:32.392Z,75.37
2023-04-02T03:23:26.069Z,75.80
2023-04-02T03:26:18.794Z,76.74
2023-04-02T03:29:38.707Z,73.59
2023-04-02T03:32:29.601Z,74.85
2023-04-02T03:35:41.075Z,79.45
2023-04-02T03:38:41.477Z,80.24
2023-04-02T03:41:37.918Z,83.19
2023-04-02T03:44:32.482Z,76.10
2023-04-02T03:47:47.475Z,79.19
2023-04-02T03:50:47.376Z,77.57
2023-04-02T03:53:32.744Z,78.39
2023-04-02T03:56:31.452Z,74.71
2023-04-02T03:59:28.661Z,74.70
2023-04-02T04:02:45.371Z,74.93
2023-04-02T04:05:35.123Z,79.33
2023-04-02T04:08:34.079Z,73.59
2023-04-02T04:11:27.445Z,78.66
2023-04-02T04:14:18.224Z,79.66
2023-04-02T04:17:13.759Z,73.16
2023-04-02T04:20:10.816Z,73.70
2023-04-02T04:22:56.028Z,74.19
2023-04-02T04:25:41.412Z,75.03
2023-04-02T04:29:14.197Z,76.70
2023-04-02T04:32:18.361Z,76.06
2023-04-02T04:35:23.083Z,72.90
2023-04-02T04:38:16.301Z,77.37
2023-04-02T04:41:12.796Z,75.22
2023-04-02T04:44:14.840Z,77.88
2023-04-02T04:47:16.349Z,75.32
2023-04-02T04:50:11.459Z,73.43
2023-04-02T04:52:58.084Z,75.87
2023-04-02T04:55:44.904Z,74.36
2023-04-02T04:59:02.138Z,75.66
2023-04-02T05:01:57.538Z,73.79
2023-04-02T05:04:48.567Z,73.99
2023-04-02T05:07:45.486Z,74.76
2023-04-02T05:10:43.658Z,74.88
2023-04-02T05:13:40.272Z,74.37
2023-04-02T05:16:40.702Z,76.18
2023-04-02T05:19:35.892Z,73.97
2023-04-02T05:22:48.790Z,73.76
2023-04-02T05:25:35.155Z,73.76
2023-04-02T05:28:29.699Z,74.06
2023-04-02T05:31:26.898Z,75.86
2023-04-02T05:34:14.572Z,74.36
2023-04-02T05:36:59.766Z,73.64
2023-04-02T05:39:46.594Z,75.90
2023-04-02T05:42:37.528Z,75.87
2023-04-02T05:45:34.625Z,77.09
2023-04-02T05:48:26.236Z,72.70
2023-04-02T05:51:23.902Z,73.07
2023-04-02T05:54:37.036Z,74.05
2023-04-02T05:57:44.427Z,75.02
2023-04-02T06:00:38.604Z,74.34
2023-04-02T06:03:52.166Z,76.02
2023-04-02T06:06:41.702Z,77.15
2023-04-02T06:09:27.540Z,76.28
2023-04-02T06:12:28.189Z,76.11
2023-04-02T06:15:21.264Z,79.01
2023-04-02T06:18:13.556Z,81.89
2023-04-02T06:20:59.287Z,74.04
2023-04-02T06:23:55.559Z,74.89
2023-04-02T06:26:44.835Z,80.87
2023-04-02T06:29:39.681Z,76.64
2023-04-02T06:32:26.833Z,75.09
2023-04-02T06:35:15.927Z,77.06
2023-04-02T06:38:03.954Z,77.57
2023-04-02T06:40:54.954Z,74.16
2023-04-02T06:43:46.136Z,74.49
2023-04-02T06:46:38.097Z,76.37
2023-04-02T06:49:40.241Z,79.08
2023-04-02T06:52:32.352Z,73.38
2023-04-02T06:55:48.013Z,74.91
2023-04-02T06:58:33.231Z,74.24
2023-04-02T07:01:24.906Z,75.08
2023-04-02T07:04:10.586Z,73.86
2023-04-02T07:06:55.895Z,74.90
2023-04-02T07:09:40.588Z,74.58
2023-04-02T07:12:26.493Z,74.15
2023-04-02T07:15:19.328Z,73.16
2023-04-02T07:18:04.762Z,73.58
2023-04-02T07:20:52.065Z,72.84
2023-04-02T07:23:40.003Z,73.81
2023-04-02T07:26:28.210Z,73.96
2023-04-02T07:29:16.180Z,73.42
2023-04-02T07:32:01.346Z,73.42
2023-04-02T07:34:48.795Z,72.79
2023-04-02T07:37:34.132Z,73.17
2023-04-02T07:40:21.868Z,73.22
2023-04-02T07:43:07.647Z,72.35
2023-04-02T07:45:52.741Z,72.19
2023-04-02T07:48:38.035Z,71.19
2023-04-02T07:51:25.774Z,71.25
2023-04-02T07:54:11.128Z,72.79
2023-04-02T07:56:56.340Z,71.50
2023-04-02T07:59:41.237Z,72.45
2023-04-02T08:02:26.339Z,72.10
2023-04-02T08:05:11.924Z,72.14
2023-04-02T08:07:57.612Z,70.89
2023-04-02T08:10:42.405Z,70.08
2023-04-02T08:13:27.331Z,69.23
2023-04-02T08:16:12.287Z,71.42
2023-04-02T08:18:57.336Z,72.93
2023-04-02T08:21:42.094Z,71.07
2023-04-02T08:24:27.012Z,73.00
2023-04-02T08:27:14.886Z,71.63
2023-04-02T08:30:00.235Z,69.51
2023-04-02T08:32:46.136Z,70.31
2023-04-02T08:35:31.250Z,70.09
2023-04-02T08:38:22.236Z,68.29
2023-04-02T08:41:10.545Z,69.24
2023-04-02T08:44:08.562Z,71.63
2023-04-02T08:47:03.264Z,75.86
2023-04-02T08:49:59.727Z,68.61
2023-04-02T08:52:45.342Z,67.57
2023-04-02T08:55:38.419Z,68.57
2023-04-02T08:58:42.295Z,69.24
2023-04-02T09:01:35.147Z,67.91
2023-04-02T09:04:23.388Z,66.11
2023-04-02T09:07:14.842Z,66.62
2023-04-02T09:10:01.157Z,66.37
2023-04-02T09:12:54.128Z,66.98
2023-04-02T09:15:39.241Z,64.54
2023-04-02T09:18:26.319Z,67.28
2023-04-02T09:21:21.000Z,67.18
2023-04-02T09:24:06.484Z,66.22
2023-04-02T09:26:51.659Z,65.43
2023-04-02T09:29:43.623Z,65.06
2023-04-02T09:32:47.443Z,64.78
2023-04-02T09:35:34.857Z,64.69
2023-04-02T09:38:31.017Z,63.75
2023-04-02T09:41:21.120Z,63.44
2023-04-02T09:44:26.724Z,64.15
2023-04-02T09:47:26.156Z,64.32
2023-04-02T09:50:34.542Z,63.46
2023-04-02T09:53:36.634Z,62.19
2023-04-02T09:56:24.171Z,63.24
2023-04-02T09:59:18.775Z,63.05
2023-04-02T10:02:05.455Z,62.89
2023-04-02T10:04:51.798Z,63.61
2023-04-02T10:07:44.868Z,62.29
2023-04-02T10:10:39.461Z,61.98
2023-04-02T10:13:56.961Z,63.65
2023-04-02T10:16:50.523Z,61.28
2023-04-02T10:19:42.831Z,60.18
2023-04-02T10:22:28.123Z,60.31
2023-04-02T10:25:21.833Z,59.59
2023-04-02T10:28:12.932Z,60.18
2023-04-02T10:31:18.409Z,61.63
2023-04-02T10:34:12.441Z,59.09
2023-04-02T10:37:08.765Z,59.55
2023-04-02T10:40:01.618Z,59.22
2023-04-02T10:43:23.704Z,60.32
2023-04-02T10:46:24.468Z,63.08
2023-04-02T10:49:33.694Z,59.16
2023-04-02T10:52:24.238Z,59.28
2023-04-02T10:55:23.697Z,59.78
2023-04-02T10:58:20.424Z,60.64
2023-04-02T11:01:14.571Z,59.04
2023-04-02T11:04:02.473Z,61.42
2023-04-02T11:07:00.833Z,60.08
2023-04-02T11:09:58.580Z,57.14
2023-04-02T11:12:50.856Z,55.26
2023-04-02T11:15:37.295Z,54.36
2023-04-02T11:18:35.934Z,54.50
2023-04-02T11:21:30.162Z,53.71
2023-04-02T11:24:31.441Z,50.32
2023-04-02T11:27:26.029Z,52.08
2023-04-02T11:30:17.996Z,50.24
2023-04-02T11:33:44.711Z,51.50
2023-04-02T11:36:55.312Z,48.64
2023-04-02T11:39:57.034Z,48.65
2023-04-02T11:42:47.716Z,49.07
2023-04-02T11:45:53.746Z,50.01
2023-04-02T11:48:40.805Z,51.83
2023-04-02T11:51:32.087Z,51.77
2023-04-02T11:54:28.910Z,52.69
2023-04-02T11:57:37.229Z,53.30
2023-04-02T12:00:32.076Z,50.94
2023-04-02T12:04:02.517Z,52.25
2023-04-02T12:07:00.076Z,52.52
2023-04-02T12:09:52.349Z,51.30
2023-04-02T12:12:41.793Z,53.30
2023-04-02T12:15:33.026Z,54.14
2023-04-02T12:18:24.137Z,51.81
2023-04-02T12:24:25.304Z,48.81
2023-04-02T12:27:24.177Z,51.18
2023-04-02T12:30:17.412Z,51.40
2023-04-02T12:33:14.825Z,50.32
2023-04-02T12:36:02.500Z,51.81
2023-04-02T12:38:53.509Z,49.59
2023-04-02T12:41:40.783Z,47.89
2023-04-02T12:44:28.703Z,48.84
2023-04-02T12:47:13.609Z,48.09
2023-04-02T12:50:01.701Z,48.18
2023-04-02T12:52:53.595Z,49.95
2023-04-02T12:55:38.564Z,49.21
2023-04-02T12:58:41.220Z,47.15
2023-04-02T13:01:32.114Z,45.40
2023-04-02T13:04:18.139Z,44.49
2023-04-02T13:07:03.260Z,46.53
2023-04-02T13:09:51.911Z,46.04
2023-04-02T13:12:39.280Z,45.98
2023-04-02T13:15:28.625Z,43.25
2023-04-02T13:18:13.982Z,44.81
2023-04-02T13:21:01.060Z,43.75
2023-04-02T13:23:46.909Z,46.36
2023-04-02T13:26:31.991Z,43.99
2023-04-02T13:29:31.014Z,46.34
2023-04-02T13:32:16.390Z,42.76
2023-04-02T13:35:01.571Z,41.57
2023-04-02T13:37:46.771Z,44.01
2023-04-02T13:40:34.228Z,43.86
2023-04-02T13:43:20.925Z,45.31
2023-04-02T13:46:07.062Z,46.12
2023-04-02T13:48:54.542Z,46.61
2023-04-02T13:51:41.889Z,46.73
2023-04-02T13:54:49.060Z,46.74
2023-04-02T13:57:34.464Z,45.40
2023-04-02T14:00:20.423Z,45.38
2023-04-02T14:03:10.492Z,44.92
2023-04-02T14:05:55.377Z,43.56
2023-04-02T14:09:17.780Z,43.59
2023-04-02T14:12:06.350Z,43.61
2023-04-02T14:15:08.567Z,42.63
2023-04-02T14:18:08.004Z,44.45
2023-04-02T14:21:31.719Z,42.18
2023-04-02T14:24:32.694Z,43.86
2023-04-02T14:28:04.664Z,44.71
2023-04-02T14:31:14.133Z,46.53
2023-04-02T14:34:25.927Z,47.40
2023-04-02T14:37:31.593Z,47.52
2023-04-02T14:40:28.066Z,47.17
2023-04-02T14:43:46.513Z,43.41
2023-04-02T14:46:37.482Z,41.86
2023-04-02T14:49:35.148Z,44.99
2023-04-02T14:52:23.900Z,46.21
2023-04-02T14:55:19.279Z,46.84
2023-04-02T14:58:18.822Z,47.91
2023-04-02T15:01:17.410Z,43.71
2023-04-02T15:04:17.062Z,42.79
2023-04-02T15:07:07.759Z,40.38
2023-04-02T15:10:08.206Z,41.01
2023-04-02T15:12:56.369Z,43.59
2023-04-02T15:15:43.862Z,44.71
2023-04-02T15:18:30.149Z,47.99
2023-04-02T15:21:49.678Z,49.11
2023-04-02T15:25:12.739Z,49.47
2023-04-02T15:28:14.031Z,49.40
2023-04-02T15:31:07.185Z,46.42
2023-04-02T15:34:20.721Z,43.36
2023-04-02T15:37:20.816Z,40.81
2023-04-02T15:40:41.541Z,39.88
2023-04-02T15:43:49.241Z,39.94
2023-04-02T15:47:02.968Z,42.53
2023-04-02T15:50:09.551Z,45.33
2023-04-02T15:53:25.165Z,46.36
2023-04-02T15:56:30.753Z,47.24
2023-04-02T15:59:24.570Z,47.51
2023-04-02T16:02:27.757Z,48.11
2023-04-02T16:05:36.369Z,46.16
2023-04-02T16:08:33.700Z,46.13
2023-04-02T16:11:18.785Z,44.01
2023-04-02T16:14:21.431Z,44.49
2023-04-02T16:17:24.286Z,45.62
2023-04-02T16:20:20.024Z,46.39
2023-04-02T16:23:12.897Z,47.67
2023-04-02T16:26:28.700Z,49.28
2023-04-02T16:29:51.169Z,48.90
2023-04-02T16:33:14.411Z,50.19
2023-04-02T16:36:27.958Z,48.25
2023-04-02T16:39:36.233Z,49.10
2023-04-02T16:42:43.541Z,48.87
2023-04-02T16:45:44.036Z,50.92
2023-04-02T16:49:03.273Z,52.08
2023-04-02T16:52:23.422Z,51.21
2023-04-02T16:55:33.255Z,51.60
2023-04-02T16:58:50.098Z,51.62
2023-04-02T17:02:21.437Z,52.83
2023-04-02T17:05:31.703Z,52.74
2023-04-02T17:08:24.046Z,53.92
2023-04-02T17:11:16.616Z,53.03
2023-04-02T17:14:06.403Z,54.13
2023-04-02T17:17:02.341Z,55.97
2023-04-02T17:19:50.648Z,55.75
2023-04-02T17:22:37.162Z,55.25
2023-04-02T17:25:32.070Z,56.17
2023-04-02T17:28:25.725Z,54.22
2023-04-02T17:31:20.033Z,55.33
2023-04-02T17:34:22.568Z,56.53
2023-04-02T17:37:42.419Z,56.77
2023-04-02T17:40:36.399Z,54.66
2023-04-02T17:43:46.363Z,58.30
2023-04-02T17:46:39.175Z,56.49
2023-04-02T17:49:31.491Z,54.92
2023-04-02T17:52:43.908Z,57.02
2023-04-02T17:55:47.067Z,55.28
2023-04-02T17:59:04.218Z,55.56
2023-04-02T18:02:19.111Z,59.04
2023-04-02T18:05:42.324Z,56.25
2023-04-02T18:08:46.635Z,57.88
2023-04-02T18:12:15.890Z,57.92
2023-04-02T18:15:28.603Z,57.96
2023-04-02T18:18:33.770Z,60.00
2023-04-02T18:21:29.078Z,62.04
2023-04-02T18:24:49.392Z,59.16
2023-04-02T18:27:51.040Z,63.74
2023-04-02T18:31:13.463Z,63.32
2023-04-02T18:34:11.093Z,61.54
2023-04-02T18:37:31.482Z,64.38
2023-04-02T18:40:43.302Z,65.92
2023-04-02T18:43:55.327Z,60.69
2023-04-02T18:47:01.520Z,61.88
2023-04-02T18:49:53.821Z,65.37
2023-04-02T18:52:41.209Z,63.61
2023-04-02T18:55:30.992Z,66.72
2023-04-02T19:01:36.444Z,64.50
2023-04-02T19:04:33.183Z,61.93
2023-04-02T19:07:20.550Z,63.91
2023-04-02T19:10:32.068Z,66.17
2023-04-02T19:13:21.849Z,65.59
2023-04-02T19:16:34.696Z,64.33
2023-04-02T19:19:22.972Z,65.25
2023-04-02T19:22:16.451Z,63.72
2023-04-02T19:25:18.140Z,65.33
2023-04-02T19:28:24.162Z,68.49
2023-04-02T19:31:32.761Z,70.63
2023-04-02T19:34:33.133Z,65.98
2023-04-02T19:37:31.986Z,64.92
2023-04-02T19:40:37.100Z,66.46
2023-04-02T19:43:22.212Z,67.33
2023-04-02T19:46:08.721Z,64.43
2023-04-02T19:49:08.108Z,63.20
2023-04-02T19:51:54.946Z,73.45
2023-04-02T19:54:40.182Z,67.10
2023-04-02T19:57:26.243Z,65.81
2023-04-02T20:00:17.297Z,65.52
2023-04-02T20:03:02.536Z,66.15
2023-04-02T20:05:47.652Z,70.33
2023-04-02T20:08:36.559Z,67.02
2023-04-02T20:11:22.598Z,68.52
2023-04-02T20:14:07.637Z,66.24
2023-04-02T20:16:54.240Z,67.62
2023-04-02T20:19:39.287Z,68.70
2023-04-02T20:22:26.315Z,73.21
2023-04-02T20:25:11.522Z,70.08
2023-04-02T20:27:57.483Z,69.58
2023-04-02T20:30:43.354Z,66.23
2023-04-02T20:33:29.171Z,66.37
2023-04-02T20:36:16.889Z,71.04
2023-04-02T20:39:02.969Z,68.42
2023-04-02T20:41:50.651Z,64.34
2023-04-02T20:44:35.877Z,67.69
2023-04-02T20:47:21.247Z,67.05
2023-04-02T20:50:08.413Z,65.54
2023-04-02T20:52:55.970Z,72.49
2023-04-02T20:55:41.072Z,66.45
2023-04-02T20:58:26.209Z,68.61
2023-04-02T21:01:23.767Z,73.99
2023-04-02T21:04:09.401Z,64.67
2023-04-02T21:06:57.576Z,72.54
2023-04-02T21:09:44.278Z,65.26
2023-04-02T21:12:30.872Z,74.62
2023-04-02T21:15:16.997Z,71.57
2023-04-02T21:18:01.907Z,73.90
2023-04-02T21:21:00.044Z,72.31
2023-04-02T21:23:48.692Z,70.58
2023-04-02T21:26:38.376Z,66.22
2023-04-02T21:29:23.383Z,66.44
2023-04-02T21:32:20.421Z,66.19
2023-04-02T21:35:08.800Z,67.82
2023-04-02T21:37:55.111Z,66.70
2023-04-02T21:40:40.153Z,73.34
2023-04-02T21:43:25.237Z,71.39
2023-04-02T21:46:12.150Z,68.98
2023-04-02T21:49:00.572Z,74.59
2023-04-02T21:51:49.071Z,74.34
2023-04-02T21:54:34.924Z,71.30
2023-04-02T21:57:20.457Z,73.88
2023-04-02T22:00:11.788Z,67.89
2023-04-02T22:02:56.930Z,67.77
2023-04-02T22:05:41.867Z,70.77
2023-04-02T22:08:26.597Z,69.92
2023-04-02T22:11:17.958Z,74.45
2023-04-02T22:14:04.009Z,69.66
2023-04-02T22:16:50.514Z,75.05
2023-04-02T22:19:35.969Z,71.39
2023-04-02T22:22:20.876Z,69.06
2023-04-02T22:25:07.695Z,69.12
2023-04-02T22:27:52.696Z,71.66
2023-04-02T22:30:39.445Z,68.83
2023-04-02T22:33:24.965Z,69.28
2023-04-02T22:36:09.937Z,71.26
2023-04-02T22:38:56.042Z,71.75
2023-04-02T22:41:41.198Z,74.34
2023-04-02T22:44:26.374Z,77.06
2023-04-02T22:47:11.269Z,72.45
2023-04-02T22:49:56.407Z,74.26
2023-04-02T22:52:43.176Z,76.69
2023-04-02T22:55:28.913Z,69.47
2023-04-02T22:58:14.046Z,75.88
2023-04-02T23:01:09.547Z,73.85
2023-04-02T23:03:55.343Z,71.73
2023-04-02T23:06:40.924Z,72.91
2023-04-02T23:09:25.925Z,72.68
2023-04-02T23:12:12.349Z,76.11
2023-04-02T23:14:58.135Z,73.51
2023-04-02T23:17:43.335Z,70.96
2023-04-02T23:20:28.069Z,75.27
2023-04-02T23:23:13.496Z,76.83
2023-04-02T23:26:16.547Z,75.63
2023-04-02T23:29:02.228Z,73.24
2023-04-02T23:31:47.637Z,76.86
2023-04-02T23:34:33.592Z,75.19
2023-04-02T23:37:18.879Z,77.33
2023-04-02T23:40:04.080Z,76.43
2023-04-02T23:42:49.495Z,74.77
2023-04-02T23:45:34.336Z,71.49
2023-04-02T23:48:19.908Z,75.03
2023-04-02T23:51:05.878Z,73.80
2023-04-02T23:53:51.958Z,77.63
2023-04-02T23:56:37.086Z,72.82
2023-04-02T23:59:21.792Z,74.70
